Time;durP1;ratioP1;P1;durP2;ratioP2;P2;SDS_P1;SDS_P2;PMS_P1;PMS_P2;Temp;Humidity;BMP_temperature;BMP_pressure;BME280_temperature;BME280_humidity;BME280_pressure;Samples;Min_cycle;Max_cycle;Signal;HPM_P1;HPM_P2
2023/03/10 00:00:43;;;;;;;15.23;5.88;;;1.20;99.90;;;;;;4993050;28;20096;-78
2023/03/10 00:03:10;;;;;;;14.25;6.38;;;1.60;99.90;;;;;;4992710;28;20074;-78
2023/03/10 00:05:37;;;;;;;15.23;6.20;;;1.20;99.90;;;;;;4993201;28;20104;-78
2023/03/10 00:08:03;;;;;;;14.18;6.10;;;1.30;99.90;;;;;;4992687;28;20046;-78
2023/03/10 00:10:29;;;;;;;;;;;1.20;99.90;;;;;;4992984;28;20209;-78
2023/03/10 00:12:54;;;;;;;12.48;5.28;;;1.30;99.90;;;;;;4993012;28;20434;-78
2023/03/10 00:15:20;;;;;;;14.70;5.50;;;1.30;99.90;;;;;;4992689;28;20049;-78
2023/03/10 00:17:48;;;;;;;15.27;5.72;;;1.30;99.90;;;;;;4992494;28;20119;-78
2023/03/10 00:20:15;;;;;;;15.77;6.00;;;1.30;99.90;;;;;;4992461;28;20061;-78
2023/03/10 00:22:42;;;;;;;;;;;1.40;99.90;;;;;;4993047;28;20047;-78
2023/03/10 00:25:09;;;;;;;14.18;5.47;;;2.00;99.90;;;;;;4992467;28;19922;-78
2023/03/10 00:27:34;;;;;;;14.77;5.65;;;1.40;99.90;;;;;;4992608;28;20047;-77
2023/03/10 00:30:00;;;;;;;14.52;5.97;;;1.40;99.90;;;;;;4992717;28;20049;-77
2023/03/10 00:32:27;;;;;;;13.70;5.70;;;1.40;99.90;;;;;;4992257;28;20050;-78
2023/03/10 00:34:53;;;;;;;15.13;6.00;;;1.40;99.90;;;;;;4992533;28;20046;-78
2023/03/10 00:37:18;;;;;;;15.88;6.72;;;1.40;99.90;;;;;;4991925;28;20502;-78
2023/03/10 00:39:48;;;;;;;13.07;5.25;;;1.40;99.90;;;;;;4992040;28;20050;-78
2023/03/10 00:42:14;;;;;;;14.07;6.22;;;1.40;99.90;;;;;;4991220;28;20082;-78
2023/03/10 00:44:40;;;;;;;13.98;5.95;;;1.40;99.90;;;;;;4992973;28;20085;-77
2023/03/10 00:47:05;;;;;;;14.02;6.53;;;1.80;99.90;;;;;;4991337;28;20046;-78
2023/03/10 00:49:31;;;;;;;13.77;5.25;;;1.40;99.90;;;;;;4991833;28;20233;-78
2023/03/10 00:51:57;;;;;;;13.70;5.95;;;1.40;99.90;;;;;;4992160;28;20055;-78
2023/03/10 00:54:22;;;;;;;14.98;5.32;;;1.50;99.90;;;;;;4991415;28;20054;-78
2023/03/10 00:56:48;;;;;;;15.30;5.43;;;1.40;99.90;;;;;;4991906;28;20185;-78
2023/03/10 00:59:14;;;;;;;13.02;5.78;;;1.30;99.90;;;;;;4991646;28;20068;-78
2023/03/10 01:01:41;;;;;;;15.20;5.63;;;1.60;99.90;;;;;;4991191;28;20475;-78
2023/03/10 01:04:11;;;;;;;13.45;5.75;;;1.40;99.90;;;;;;4992261;28;20092;-78
2023/03/10 01:06:37;;;;;;;13.50;6.10;;;1.80;99.90;;;;;;4991967;28;20034;-78
2023/03/10 01:09:03;;;;;;;13.18;5.50;;;1.40;99.90;;;;;;4991918;28;20081;-78
2023/03/10 01:11:30;;;;;;;10.45;4.70;;;1.40;99.90;;;;;;4991560;28;20061;-78
2023/03/10 01:14:01;;;;;;;12.88;5.20;;;1.40;99.90;;;;;;4992215;28;20045;-78
2023/03/10 01:16:27;;;;;;;14.43;6.68;;;1.40;99.90;;;;;;4991995;28;20047;-78
2023/03/10 01:18:53;;;;;;;12.25;5.13;;;1.50;99.90;;;;;;4991839;28;20043;-78
2023/03/10 01:21:22;;;;;;;14.70;6.18;;;1.50;99.90;;;;;;4991841;28;20054;-78
2023/03/10 01:23:48;;;;;;;13.35;5.43;;;1.60;99.90;;;;;;4991306;28;20555;-78
2023/03/10 01:26:14;;;;;;;12.02;5.32;;;1.60;99.90;;;;;;4991812;28;20134;-78
2023/03/10 01:28:39;;;;;;;11.70;5.05;;;1.60;99.90;;;;;;4992006;28;20046;-78
2023/03/10 01:31:06;;;;;;;11.73;4.93;;;1.90;99.90;;;;;;4990973;28;20046;-78
2023/03/10 01:33:38;;;;;;;13.63;5.63;;;1.60;99.90;;;;;;4991227;28;20052;-78
2023/03/10 01:36:12;;;;;;;12.50;5.15;;;1.60;99.90;;;;;;4992098;28;20488;-78
2023/03/10 01:38:38;;;;;;;9.38;4.22;;;1.60;99.90;;;;;;4991182;28;20050;-78
2023/03/10 01:41:05;;;;;;;11.57;5.07;;;1.70;99.90;;;;;;4991506;28;20053;-78
2023/03/10 01:43:33;;;;;;;11.45;4.70;;;1.70;99.90;;;;;;4991579;28;20483;-78
2023/03/10 01:46:25;;;;;;;10.70;4.60;;;2.00;99.90;;;;;;4992065;28;20046;-78
2023/03/10 01:48:52;;;;;;;10.65;4.95;;;1.70;99.90;;;;;;4984466;28;20060;-78
2023/03/10 01:51:18;;;;;;;14.77;5.05;;;1.70;99.90;;;;;;4991297;28;20050;-78
2023/03/10 01:53:44;;;;;;;;;;;2.60;99.90;;;;;;4991908;28;20054;-78
2023/03/10 01:56:10;;;;;;;11.25;4.50;;;1.70;99.90;;;;;;4991582;28;19922;-78
2023/03/10 01:58:42;;;;;;;11.57;4.85;;;1.70;99.90;;;;;;4991435;28;20038;-78
2023/03/10 02:01:10;;;;;;;10.23;4.90;;;1.70;99.90;;;;;;4991902;28;20125;-78
2023/03/10 02:03:55;;;;;;;12.82;4.97;;;1.60;99.90;;;;;;4991605;28;20103;-78
2023/03/10 02:06:22;;;;;;;11.57;4.72;;;1.60;99.90;;;;;;4991471;28;20057;-78
2023/03/10 02:08:51;;;;;;;12.98;5.55;;;1.60;99.90;;;;;;4991034;28;20050;-78
2023/03/10 02:11:18;;;;;;;13.82;5.80;;;1.60;99.90;;;;;;4993308;28;20078;-78
2023/03/10 02:13:44;;;;;;;12.93;4.80;;;1.60;99.90;;;;;;4995372;28;20129;-78
2023/03/10 02:16:10;;;;;;;11.25;4.95;;;1.70;99.90;;;;;;4995476;28;20129;-78
2023/03/10 02:18:36;;;;;;;;;;;1.70;99.90;;;;;;4995278;28;20125;-78
2023/03/10 02:21:26;;;;;;;12.45;4.93;;;1.70;99.90;;;;;;4995252;28;20035;-78
2023/03/10 02:24:04;;;;;;;12.23;4.90;;;1.70;99.90;;;;;;4994937;28;20050;-78
2023/03/10 02:26:38;;;;;;;11.63;5.55;;;1.70;99.90;;;;;;4994207;28;20194;-78
2023/03/10 02:29:08;;;;;;;14.65;5.35;;;1.70;99.90;;;;;;4995218;28;20427;-78
2023/03/10 02:31:35;;;;;;;13.15;5.47;;;2.00;99.90;;;;;;4995051;28;20092;-78
2023/03/10 02:34:02;;;;;;;10.75;4.93;;;1.70;99.90;;;;;;4994902;28;20100;-78
2023/03/10 02:36:28;;;;;;;12.75;5.30;;;1.70;99.90;;;;;;4994561;28;20077;-78
2023/03/10 02:38:54;;;;;;;14.32;5.57;;;1.70;99.90;;;;;;4994528;28;20096;-78
2023/03/10 02:41:25;;;;;;;12.25;5.35;;;2.20;99.90;;;;;;4994390;28;20096;-78
2023/03/10 02:43:52;;;;;;;9.82;4.45;;;1.70;99.90;;;;;;4994897;28;20447;-78
2023/03/10 02:46:19;;;;;;;12.23;5.60;;;1.70;99.90;;;;;;4994687;28;20053;-78
2023/03/10 02:48:45;;;;;;;11.13;4.40;;;1.70;99.90;;;;;;4994525;28;20052;-77
2023/03/10 02:51:20;;;;;;;;;;;1.60;99.90;;;;;;4994951;28;20046;-78
2023/03/10 02:53:46;;;;;;;11.02;4.60;;;1.70;99.90;;;;;;4993973;28;19928;-78
2023/03/10 02:56:11;;;;;;;10.60;4.65;;;1.80;99.90;;;;;;4994176;28;20050;-77
2023/03/10 02:58:38;;;;;;;12.63;5.60;;;1.60;99.90;;;;;;4994266;28;20057;-78
2023/03/10 03:01:04;;;;;;;11.02;4.50;;;1.60;99.90;;;;;;4994698;28;20046;-77
2023/03/10 03:03:30;;;;;;;11.73;4.93;;;1.60;99.90;;;;;;4993933;28;20074;-77
2023/03/10 03:05:56;;;;;;;10.57;4.70;;;1.60;99.90;;;;;;4994534;28;20081;-77
2023/03/10 03:08:22;;;;;;;11.25;4.80;;;1.60;99.90;;;;;;4993903;28;20065;-77
2023/03/10 03:10:48;;;;;;;11.25;4.88;;;2.10;99.90;;;;;;4992208;28;20050;-77
2023/03/10 03:13:14;;;;;;;11.18;4.28;;;1.60;99.90;;;;;;4994214;28;20494;-77
2023/03/10 03:15:40;;;;;;;12.25;4.75;;;1.60;99.90;;;;;;4992904;28;20046;-77
2023/03/10 03:18:06;;;;;;;10.27;4.70;;;1.60;99.90;;;;;;4993917;28;20050;-77
2023/03/10 03:20:32;;;;;;;9.05;4.35;;;2.20;99.90;;;;;;4993375;28;20558;-77
2023/03/10 03:22:58;;;;;;;11.02;4.82;;;1.60;99.90;;;;;;4993231;28;20050;-77
2023/03/10 03:25:26;;;;;;;11.40;4.40;;;1.50;99.90;;;;;;4993565;28;20053;-78
2023/03/10 03:27:52;;;;;;;9.68;4.43;;;2.00;99.90;;;;;;4994163;28;20144;-77
2023/03/10 03:30:23;;;;;;;10.48;4.78;;;1.50;99.90;;;;;;4992671;28;20096;-77
2023/03/10 03:32:49;;;;;;;12.10;4.88;;;1.50;99.90;;;;;;4993213;28;20609;-77
2023/03/10 03:35:23;;;;;;;10.15;4.60;;;1.50;99.90;;;;;;4993578;28;20042;-77
2023/03/10 03:37:50;;;;;;;10.55;4.43;;;1.50;99.90;;;;;;4993078;28;20074;-77
2023/03/10 03:40:16;;;;;;;9.73;4.60;;;1.50;99.90;;;;;;4993306;28;20137;-77
2023/03/10 03:42:47;;;;;;;9.90;4.63;;;2.00;99.90;;;;;;4993462;28;20054;-77
2023/03/10 03:45:15;;;;;;;12.18;4.55;;;1.60;99.90;;;;;;4993812;28;20463;-77
2023/03/10 03:47:41;;;;;;;11.18;4.53;;;1.60;99.90;;;;;;4993174;28;20046;-77
2023/03/10 03:50:09;;;;;;;11.23;5.38;;;1.50;99.90;;;;;;4993376;28;20093;-77
2023/03/10 03:52:34;;;;;;;15.00;5.65;;;1.50;99.90;;;;;;4992277;28;20647;-77
2023/03/10 03:55:00;;;;;;;10.90;5.45;;;1.50;99.90;;;;;;4991857;28;20046;-77
2023/03/10 03:57:26;;;;;;;12.18;5.90;;;1.80;99.90;;;;;;4993366;28;20050;-77
2023/03/10 03:59:53;;;;;;;13.77;6.38;;;1.50;99.90;;;;;;4992012;28;20082;-77
2023/03/10 04:02:19;;;;;;;13.88;5.55;;;1.50;99.90;;;;;;4992218;28;20045;-77
2023/03/10 04:04:44;;;;;;;;;;;1.50;99.90;;;;;;4993315;28;20046;-77
2023/03/10 04:07:10;;;;;;;12.80;5.65;;;1.40;99.90;;;;;;4993070;28;19922;-78
2023/03/10 04:09:38;;;;;;;14.38;5.72;;;1.50;99.90;;;;;;4992527;28;20137;-78
2023/03/10 04:12:05;;;;;;;14.25;5.75;;;1.50;99.90;;;;;;4993261;28;20057;-77
2023/03/10 04:14:31;;;;;;;14.27;5.80;;;1.50;99.90;;;;;;4991681;28;20047;-77
2023/03/10 04:16:56;;;;;;;14.77;6.38;;;1.50;99.90;;;;;;4992977;28;20053;-77
2023/03/10 04:19:22;;;;;;;15.57;6.18;;;1.50;99.90;;;;;;4991854;28;20058;-77
2023/03/10 04:21:48;;;;;;;12.13;5.47;;;1.60;99.90;;;;;;4992563;28;20050;-77
2023/03/10 04:24:14;;;;;;;16.63;6.82;;;1.50;99.90;;;;;;4992570;28;20042;-77
2023/03/10 04:26:40;;;;;;;14.57;6.15;;;1.60;99.90;;;;;;4992347;28;20058;-77
2023/03/10 04:29:06;;;;;;;15.00;6.68;;;1.50;99.90;;;;;;4993059;28;20050;-79
2023/03/10 04:31:31;;;;;;;13.98;6.22;;;1.60;99.90;;;;;;4992562;28;20068;-78
2023/03/10 04:33:57;;;;;;;14.48;6.05;;;1.60;99.90;;;;;;4991884;28;20045;-77
2023/03/10 04:36:23;;;;;;;13.35;5.72;;;1.60;99.90;;;;;;4992497;28;20483;-77
2023/03/10 04:38:48;;;;;;;15.57;6.32;;;1.60;99.90;;;;;;4991921;28;20046;-77
2023/03/10 04:41:14;;;;;;;11.88;5.20;;;1.60;99.90;;;;;;4992351;28;20042;-77
2023/03/10 04:43:40;;;;;;;;;;;1.70;99.90;;;;;;4992811;28;20049;-77
2023/03/10 04:46:06;;;;;;;10.27;4.97;;;1.60;99.90;;;;;;4992983;28;19921;-77
2023/03/10 04:48:32;;;;;;;;;;;1.60;99.90;;;;;;4992797;28;20085;-77
2023/03/10 04:51:00;;;;;;;12.38;5.18;;;2.00;99.90;;;;;;4992096;28;19922;-77
2023/03/10 04:53:26;;;;;;;10.55;4.78;;;1.60;99.90;;;;;;4991515;28;20439;-77
2023/03/10 04:55:52;;;;;;;14.50;5.13;;;1.60;99.90;;;;;;4991830;28;20162;-77
2023/03/10 04:58:19;;;;;;;12.77;5.38;;;1.60;99.90;;;;;;4992743;28;20564;-77
2023/03/10 05:00:45;;;;;;;10.45;4.32;;;1.60;99.90;;;;;;4992061;28;20085;-78
2023/03/10 05:03:11;;;;;;;;;;;1.60;99.90;;;;;;4992765;28;20134;-77
2023/03/10 05:05:36;;;;;;;11.68;4.50;;;1.50;99.90;;;;;;4991690;28;19961;-78
2023/03/10 05:08:03;;;;;;;9.82;4.30;;;1.60;99.90;;;;;;4991665;28;20053;-78
2023/03/10 05:10:29;;;;;;;10.10;3.85;;;1.60;99.90;;;;;;4991932;28;20109;-78
2023/03/10 05:12:55;;;;;;;11.55;4.60;;;1.60;99.90;;;;;;4991814;28;20038;-77
2023/03/10 05:15:20;;;;;;;9.88;4.57;;;2.60;99.90;;;;;;4990913;28;20093;-77
2023/03/10 05:17:46;;;;;;;11.68;4.82;;;1.60;99.90;;;;;;4974502;28;20077;-78
2023/03/10 05:20:15;;;;;;;8.63;3.58;;;1.60;99.90;;;;;;4991751;28;20050;-77
2023/03/10 05:22:41;;;;;;;10.77;4.53;;;1.70;99.90;;;;;;4991481;28;20042;-77
2023/03/10 05:25:08;;;;;;;10.23;3.95;;;1.70;99.90;;;;;;4991881;28;20137;-77
2023/03/10 05:27:35;;;;;;;8.40;3.55;;;1.70;99.90;;;;;;4992119;28;20042;-78
2023/03/10 05:30:02;;;;;;;9.50;4.15;;;2.20;99.90;;;;;;4992171;28;20488;-77
2023/03/10 05:32:27;;;;;;;8.68;3.85;;;1.60;99.90;;;;;;4992145;28;20134;-77
2023/03/10 05:34:54;;;;;;;8.57;3.83;;;1.60;99.90;;;;;;4991538;28;20480;-77
2023/03/10 05:37:19;;;;;;;6.95;3.08;;;2.00;99.90;;;;;;4991493;28;20109;-77
2023/03/10 05:39:45;;;;;;;10.00;4.18;;;1.90;99.90;;;;;;4991066;28;20089;-77
2023/03/10 05:42:11;;;;;;;9.85;3.65;;;1.50;99.90;;;;;;4992157;28;20050;-77
2023/03/10 05:44:38;;;;;;;11.57;4.05;;;1.50;99.90;;;;;;4992955;28;20400;-78
2023/03/10 05:47:04;;;;;;;10.77;4.28;;;1.50;99.90;;;;;;4995944;28;20082;-77
2023/03/10 05:49:30;;;;;;;10.18;4.35;;;1.50;99.90;;;;;;4995759;28;20050;-77
2023/03/10 05:51:57;;;;;;;10.10;4.20;;;1.50;99.90;;;;;;4993744;28;20050;-77
2023/03/10 05:54:23;;;;;;;11.63;4.43;;;1.50;99.90;;;;;;4994050;28;20054;-77
2023/03/10 05:56:49;;;;;;;8.88;4.07;;;1.50;99.90;;;;;;4994996;28;20050;-77
2023/03/10 05:59:15;;;;;;;9.00;4.45;;;1.60;99.90;;;;;;4995594;28;20488;-77
2023/03/10 06:01:41;;;;;;;10.07;4.30;;;1.60;99.90;;;;;;4994643;28;20129;-78
2023/03/10 06:04:06;;;;;;;9.13;3.90;;;1.60;99.90;;;;;;4994721;28;20108;-77
2023/03/10 06:06:32;;;;;;;10.10;4.05;;;1.60;99.90;;;;;;4995197;28;20077;-78
2023/03/10 06:08:59;;;;;;;;;;;1.60;99.90;;;;;;4994775;28;20062;-77
2023/03/10 06:11:25;;;;;;;9.35;3.72;;;1.60;99.90;;;;;;4995104;28;19973;-77
2023/03/10 06:13:51;;;;;;;9.10;3.58;;;1.60;99.90;;;;;;4994716;28;20212;-77
2023/03/10 06:16:17;;;;;;;10.00;4.20;;;2.20;99.90;;;;;;4995480;28;20046;-76
2023/03/10 06:18:43;;;;;;;8.73;3.83;;;1.60;99.90;;;;;;4994699;28;20065;-77
2023/03/10 06:21:11;;;;;;;9.88;4.28;;;1.90;99.90;;;;;;4995017;28;20101;-77
2023/03/10 06:23:37;;;;;;;8.75;3.50;;;1.60;99.90;;;;;;4994738;28;20431;-77
2023/03/10 06:26:10;;;;;;;9.45;3.95;;;1.50;99.90;;;;;;4994476;28;20050;-77
2023/03/10 06:28:38;;;;;;;9.82;3.85;;;1.60;99.90;;;;;;4995259;28;20372;-77
2023/03/10 06:31:15;;;;;;;9.65;4.32;;;1.60;99.90;;;;;;4994815;28;20054;-77
2023/03/10 06:33:41;;;;;;;10.32;4.07;;;1.60;99.90;;;;;;4994648;28;20391;-78
2023/03/10 06:36:09;;;;;;;10.52;4.82;;;1.70;99.90;;;;;;4994976;28;20046;-77
2023/03/10 06:38:34;;;;;;;11.00;4.25;;;1.60;99.90;;;;;;4994439;28;20129;-77
2023/03/10 06:41:00;;;;;;;8.70;3.88;;;1.60;99.90;;;;;;4993772;28;20126;-77
2023/03/10 06:43:26;;;;;;;11.20;4.80;;;1.50;99.90;;;;;;4994974;28;20042;-77
2023/03/10 06:45:52;;;;;;;9.32;3.88;;;1.50;99.90;;;;;;4993473;28;20050;-77
2023/03/10 06:48:17;;;;;;;10.77;4.68;;;1.60;99.90;;;;;;4994602;28;20050;-77
2023/03/10 06:50:48;;;;;;;10.40;4.35;;;1.50;99.90;;;;;;4993983;28;20073;-78
2023/03/10 06:53:17;;;;;;;10.35;4.07;;;1.70;99.90;;;;;;4993620;28;20146;-77
2023/03/10 06:55:42;;;;;;;10.68;4.80;;;1.50;99.90;;;;;;4993026;28;20108;-77
2023/03/10 06:58:08;;;;;;;10.35;4.55;;;1.50;99.90;;;;;;4994132;28;20054;-77
2023/03/10 07:00:34;;;;;;;14.57;4.72;;;1.50;99.90;;;;;;4994394;28;20058;-77
2023/03/10 07:02:59;;;;;;;11.15;4.45;;;1.50;99.90;;;;;;4993909;28;20573;-77
2023/03/10 07:05:26;;;;;;;11.75;4.90;;;1.60;99.90;;;;;;4993023;28;20128;-77
2023/03/10 07:07:53;;;;;;;11.32;4.93;;;1.60;99.90;;;;;;4993249;28;20530;-76
2023/03/10 07:10:19;;;;;;;12.15;4.95;;;1.60;99.90;;;;;;4992900;28;20384;-76
2023/03/10 07:12:47;;;;;;;9.95;4.60;;;1.70;99.90;;;;;;4993906;28;20101;-80
2023/03/10 07:15:13;;;;;;;11.93;4.72;;;1.70;99.90;;;;;;4993878;28;20046;-79
2023/03/10 07:17:39;;;;;;;13.90;5.70;;;1.70;99.90;;;;;;4994036;28;20046;-80
2023/03/10 07:20:05;;;;;;;12.13;5.50;;;1.70;99.90;;;;;;4993496;28;20100;-78
2023/03/10 07:22:31;;;;;;;12.52;5.53;;;1.70;99.90;;;;;;4993507;28;20046;-80
2023/03/10 07:24:56;;;;;;;13.50;5.57;;;1.70;99.90;;;;;;4993478;28;20049;-79
2023/03/10 07:27:22;;;;;;;13.73;5.25;;;2.20;99.90;;;;;;4993535;28;20046;-80
2023/03/10 07:29:48;;;;;;;12.93;5.50;;;1.70;99.90;;;;;;4993693;28;20476;-79
2023/03/10 07:32:15;;;;;;;11.77;5.35;;;1.80;99.90;;;;;;4993475;28;20408;-76
2023/03/10 07:34:41;;;;;;;13.60;5.45;;;1.80;99.90;;;;;;4993806;28;20376;-76
2023/03/10 07:37:08;;;;;;;16.50;6.55;;;1.80;99.90;;;;;;4993346;28;20099;-78
2023/03/10 07:39:34;;;;;;;12.85;5.70;;;1.80;99.90;;;;;;4992879;28;20133;-78
2023/03/10 07:42:00;;;;;;;13.93;5.80;;;1.80;99.90;;;;;;4993082;28;20185;-76
2023/03/10 07:44:25;;;;;;;17.77;6.95;;;1.90;99.90;;;;;;4993699;28;20038;-75
2023/03/10 07:46:51;;;;;;;14.70;6.40;;;1.90;99.90;;;;;;4993344;28;20046;-75
2023/03/10 07:49:17;;;;;;;14.40;6.40;;;1.90;99.90;;;;;;4993475;28;20476;-76
2023/03/10 07:51:42;;;;;;;16.65;6.70;;;1.90;99.90;;;;;;4993037;28;20061;-75
2023/03/10 07:54:10;;;;;;;15.45;6.93;;;1.90;99.90;;;;;;4992637;28;20113;-76
2023/03/10 07:56:36;;;;;;;16.90;6.38;;;1.90;99.90;;;;;;4993026;28;20057;-76
2023/03/10 07:59:01;;;;;;;15.55;6.38;;;1.90;99.90;;;;;;4993422;28;20046;-75
2023/03/10 08:01:27;;;;;;;15.30;7.10;;;2.30;99.90;;;;;;4992896;28;20046;-76
2023/03/10 08:03:53;;;;;;;15.57;6.05;;;1.90;99.90;;;;;;4992368;28;20085;-75
2023/03/10 08:06:24;;;;;;;16.58;6.97;;;1.80;99.90;;;;;;4992164;28;20093;-76
2023/03/10 08:08:51;;;;;;;15.27;6.55;;;1.80;99.90;;;;;;4990885;28;20054;-80
2023/03/10 08:11:17;;;;;;;19.88;6.88;;;2.00;99.90;;;;;;4992566;28;20105;-76
2023/03/10 08:13:46;;;;;;;;;;;1.80;99.90;;;;;;4993181;28;20372;-75
2023/03/10 08:16:13;;;;;;;14.65;6.20;;;1.80;99.90;;;;;;4992922;28;20141;-76
2023/03/10 08:18:39;;;;;;;15.15;6.35;;;1.90;99.90;;;;;;4992848;28;20483;-75
2023/03/10 08:21:06;;;;;;;14.95;7.30;;;1.90;99.90;;;;;;4992768;28;20105;-75
2023/03/10 08:23:32;;;;;;;16.45;6.95;;;2.20;99.90;;;;;;4991871;28;20606;-79
2023/03/10 08:26:00;;;;;;;18.73;7.45;;;2.00;99.90;;;;;;4991697;28;20400;-76
2023/03/10 08:28:27;;;;;;;17.33;6.82;;;1.90;99.90;;;;;;4992994;28;20046;-75
2023/03/10 08:30:53;;;;;;;16.23;6.72;;;2.00;99.90;;;;;;4991368;28;20089;-78
2023/03/10 08:33:20;;;;;;;18.33;7.03;;;2.00;99.90;;;;;;4992863;28;20088;-77
2023/03/10 08:35:46;;;;;;;17.83;7.00;;;2.00;99.90;;;;;;4991702;28;20051;-81
2023/03/10 08:38:12;;;;;;;18.48;6.50;;;2.00;99.90;;;;;;4990246;28;20107;-80
2023/03/10 08:40:38;;;;;;;15.68;6.50;;;2.90;99.90;;;;;;4991894;28;20058;-79
2023/03/10 08:43:04;;;;;;;15.38;6.43;;;2.10;99.90;;;;;;4991642;28;20476;-79
2023/03/10 08:45:31;;;;;;;15.70;6.40;;;2.10;99.90;;;;;;4992476;28;20121;-78
2023/03/10 08:47:56;;;;;;;15.52;6.45;;;2.30;99.90;;;;;;4992010;28;20178;-79
2023/03/10 08:50:22;;;;;;;16.58;6.75;;;2.20;99.90;;;;;;4991971;28;20057;-79
2023/03/10 08:52:48;;;;;;;17.23;6.93;;;2.20;99.90;;;;;;4991642;28;20058;-79
2023/03/10 08:55:14;;;;;;;17.70;6.70;;;2.20;99.90;;;;;;4991241;28;20666;-79
2023/03/10 08:57:39;;;;;;;;;;;2.20;99.90;;;;;;4992348;28;20483;-79
2023/03/10 09:00:06;;;;;;;15.35;6.53;;;2.30;99.90;;;;;;4991680;28;19921;-78
2023/03/10 09:02:32;;;;;;;15.75;7.05;;;2.30;99.90;;;;;;4992106;28;20057;-79
2023/03/10 09:04:58;;;;;;;15.27;6.13;;;2.40;99.90;;;;;;4991861;28;20125;-79
2023/03/10 09:07:24;;;;;;;15.57;6.55;;;2.40;99.90;;;;;;4991508;28;20085;-79
2023/03/10 09:09:50;;;;;;;;;;;2.40;99.90;;;;;;4992226;28;20109;-79
2023/03/10 09:12:15;;;;;;;13.60;5.35;;;2.40;99.90;;;;;;4990743;28;20154;-79
2023/03/10 09:14:41;;;;;;;14.75;6.97;;;2.30;99.90;;;;;;4991983;28;20042;-79
2023/03/10 09:17:07;;;;;;;13.90;6.32;;;2.30;99.90;;;;;;4990500;28;20038;-80
2023/03/10 09:19:32;;;;;;;17.85;6.80;;;2.30;99.90;;;;;;4994004;28;20089;-79
2023/03/10 09:21:58;;;;;;;17.83;6.90;;;2.30;99.90;;;;;;4997806;28;20049;-79
2023/03/10 09:24:24;;;;;;;13.60;6.10;;;2.30;99.90;;;;;;4997533;28;20508;-78
2023/03/10 09:26:50;;;;;;;15.00;6.68;;;2.50;99.90;;;;;;4998001;28;20049;-78
2023/03/10 09:29:16;;;;;;;14.93;6.07;;;2.70;99.90;;;;;;4996554;28;20451;-78
2023/03/10 09:31:42;;;;;;;14.70;6.38;;;2.30;99.90;;;;;;4998379;28;20046;-79
2023/03/10 09:34:10;;;;;;;14.95;6.28;;;2.30;99.90;;;;;;4998023;28;20046;-78
2023/03/10 09:36:36;;;;;;;13.57;5.57;;;2.30;99.90;;;;;;4998362;28;20480;-78
2023/03/10 09:39:02;;;;;;;16.80;7.18;;;2.40;99.90;;;;;;4997318;28;20050;-78
2023/03/10 09:41:33;;;;;;;13.60;5.72;;;2.40;99.90;;;;;;4997876;28;20038;-78
2023/03/10 09:44:07;;;;;;;15.43;6.80;;;2.40;99.90;;;;;;4998224;28;20582;-77
2023/03/10 09:46:53;;;;;;;14.15;6.30;;;2.40;99.90;;;;;;4998524;28;20458;-79
2023/03/10 09:49:27;;;;;;;15.33;6.70;;;2.60;99.90;;;;;;4997587;28;20046;-77
2023/03/10 09:51:52;;;;;;;15.60;5.80;;;2.40;99.90;;;;;;4998155;28;20050;-78
2023/03/10 09:54:53;;;;;;;16.85;6.03;;;2.40;99.90;;;;;;4997400;28;20053;-78
2023/03/10 09:57:21;;;;;;;14.07;5.40;;;2.40;99.90;;;;;;4994693;28;20194;-77
2023/03/10 09:59:50;;;;;;;13.50;6.22;;;2.40;99.90;;;;;;4998248;28;20394;-77
2023/03/10 10:02:21;;;;;;;17.75;6.72;;;2.40;99.90;;;;;;4997622;28;20064;-78
2023/03/10 10:04:52;;;;;;;16.02;6.05;;;2.40;99.90;;;;;;4998329;28;20146;-78
2023/03/10 10:07:22;;;;;;;13.27;5.82;;;2.40;99.90;;;;;;4997615;28;20049;-79
2023/03/10 10:10:08;;;;;;;12.70;6.00;;;2.40;99.90;;;;;;4997686;28;20062;-78
2023/03/10 10:12:34;;;;;;;16.40;6.70;;;2.30;99.90;;;;;;4997738;28;20058;-79
2023/03/10 10:15:20;;;;;;;15.77;6.63;;;2.40;99.90;;;;;;4998210;28;20034;-79
2023/03/10 10:17:58;;;;;;;18.40;6.88;;;2.40;99.90;;;;;;4998315;28;20065;-79
2023/03/10 10:20:50;;;;;;;15.77;6.70;;;2.40;99.90;;;;;;4997768;28;20043;-79
2023/03/10 10:23:24;;;;;;;14.27;6.55;;;2.50;99.90;;;;;;4997075;28;20046;-79
2023/03/10 10:25:49;;;;;;;14.75;6.72;;;2.40;99.90;;;;;;4996409;28;20606;-79
2023/03/10 10:28:20;;;;;;;13.65;6.18;;;2.50;99.90;;;;;;4997792;28;20138;-79
2023/03/10 10:30:46;;;;;;;16.17;6.43;;;2.50;99.90;;;;;;4996179;28;20054;-79
2023/03/10 10:33:13;;;;;;;15.90;7.50;;;2.50;99.90;;;;;;4993978;28;20050;-79
2023/03/10 10:35:42;;;;;;;17.55;7.40;;;2.40;99.90;;;;;;4995000;28;20048;-79
2023/03/10 10:38:08;;;;;;;14.40;6.20;;;2.40;99.90;;;;;;4994182;28;20052;-79
2023/03/10 10:40:55;;;;;;;15.13;6.68;;;2.40;99.90;;;;;;4994807;28;20050;-79
2023/03/10 10:43:21;;;;;;;15.80;7.13;;;2.40;99.90;;;;;;4987057;28;20050;-78
2023/03/10 10:46:05;;;;;;;14.68;6.68;;;2.30;99.90;;;;;;4993491;28;20113;-79
2023/03/10 10:48:40;;;;;;;17.35;7.20;;;2.40;99.90;;;;;;4994138;28;20047;-79
2023/03/10 10:51:20;;;;;;;15.95;6.65;;;2.50;99.90;;;;;;4994623;28;20461;-79
2023/03/10 10:53:46;;;;;;;15.95;7.10;;;2.30;99.90;;;;;;4993992;28;20492;-79
2023/03/10 10:56:15;;;;;;;17.70;7.13;;;2.30;99.90;;;;;;4993239;28;20050;-78
2023/03/10 10:58:43;;;;;;;16.25;7.32;;;2.20;99.90;;;;;;4990381;28;20073;-77
2023/03/10 11:01:15;;;;;;;16.92;6.82;;;2.20;99.90;;;;;;4989892;28;20137;-77
2023/03/10 11:03:45;;;;;;;20.95;7.93;;;2.20;99.90;;;;;;4992479;28;20035;-78
2023/03/10 11:06:28;;;;;;;16.67;7.97;;;2.20;99.90;;;;;;4992766;28;20072;-77
2023/03/10 11:09:14;;;;;;;16.63;7.35;;;2.20;99.90;;;;;;4993429;28;20137;-77
2023/03/10 11:12:14;;;;;;;16.65;7.00;;;2.30;99.90;;;;;;4993789;28;20392;-77
2023/03/10 11:15:08;;;;;;;16.88;7.07;;;2.30;99.90;;;;;;4994067;28;20134;-77
2023/03/10 11:17:42;;;;;;;17.65;7.45;;;2.30;99.90;;;;;;4993644;28;20053;-77
2023/03/10 11:20:36;;;;;;;17.77;7.35;;;2.30;99.90;;;;;;4992509;28;20054;-77
2023/03/10 11:23:26;;;;;;;19.50;8.20;;;2.40;99.90;;;;;;4993351;28;20049;-77
2023/03/10 11:26:14;;;;;;;17.77;7.75;;;2.40;99.90;;;;;;4993463;28;20046;-77
2023/03/10 11:28:58;;;;;;;16.08;6.85;;;2.40;99.90;;;;;;4993767;28;20046;-77
2023/03/10 11:31:44;;;;;;;15.02;6.78;;;2.40;99.90;;;;;;4992860;28;20411;-77
2023/03/10 11:34:19;;;;;;;16.73;6.50;;;3.40;99.90;;;;;;4993072;28;20512;-77
2023/03/10 11:36:57;;;;;;;15.05;7.00;;;2.40;99.90;;;;;;4993256;28;20046;-77
2023/03/10 11:39:38;;;;;;;16.40;7.10;;;2.40;99.90;;;;;;4992568;28;20090;-77
2023/03/10 11:42:12;;;;;;;17.65;7.38;;;2.30;99.90;;;;;;4993055;28;20057;-77
2023/03/10 11:44:45;;;;;;;18.23;7.63;;;2.30;99.90;;;;;;4993332;28;20049;-77
2023/03/10 11:47:27;;;;;;;17.08;7.00;;;2.40;99.90;;;;;;4993142;28;20046;-77
2023/03/10 11:50:29;;;;;;;15.50;7.03;;;2.40;99.90;;;;;;4993309;28;20054;-77
2023/03/10 11:53:02;;;;;;;18.92;7.10;;;2.50;99.90;;;;;;4992299;28;20070;-77
2023/03/10 11:55:30;;;;;;;16.52;6.80;;;2.50;99.90;;;;;;4992252;28;20415;-77
2023/03/10 11:57:58;;;;;;;15.80;7.47;;;2.50;99.90;;;;;;4992346;28;20053;-77
2023/03/10 12:00:43;;;;;;;15.88;6.55;;;2.50;99.90;;;;;;4992998;28;20086;-77
2023/03/10 12:03:28;;;;;;;16.80;7.07;;;2.60;99.90;;;;;;4993292;28;20201;-77
2023/03/10 12:05:57;;;;;;;15.18;6.20;;;2.60;99.90;;;;;;4993002;28;20042;-78
2023/03/10 12:08:29;;;;;;;14.30;6.13;;;2.60;99.90;;;;;;4990826;28;20057;-78
2023/03/10 12:10:58;;;;;;;18.02;6.55;;;2.60;99.90;;;;;;4991819;28;20475;-79
2023/03/10 12:13:36;;;;;;;15.88;6.20;;;2.70;99.90;;;;;;4992650;28;20046;-78
2023/03/10 12:16:03;;;;;;;16.02;6.72;;;2.80;99.90;;;;;;4976626;28;20062;-78
2023/03/10 12:18:29;;;;;;;16.77;6.15;;;2.70;99.90;;;;;;4992488;28;20407;-78
2023/03/10 12:21:28;;;;;;;14.82;6.43;;;2.70;99.90;;;;;;4992930;28;20133;-78
2023/03/10 12:23:56;;;;;;;13.88;6.57;;;2.70;99.90;;;;;;4969901;28;20053;-78
2023/03/10 12:26:37;;;;;;;14.93;6.65;;;2.70;99.90;;;;;;4990765;28;20057;-78
2023/03/10 12:29:33;;;;;;;17.48;6.88;;;2.70;99.90;;;;;;4990222;28;20047;-78
2023/03/10 12:32:00;;;;;;;14.05;6.35;;;2.70;99.90;;;;;;4990719;28;20399;-78
2023/03/10 12:34:28;;;;;;;;;;;2.60;99.90;;;;;;4988120;28;20137;-79
2023/03/10 12:37:10;;;;;;;14.27;5.95;;;2.60;99.90;;;;;;4990804;28;19984;-78
2023/03/10 12:39:41;;;;;;;14.45;6.18;;;2.60;99.90;;;;;;4989633;28;20082;-78
2023/03/10 12:42:38;;;;;;;15.38;6.85;;;2.60;99.90;;;;;;4992034;28;20046;-78
2023/03/10 12:45:27;;;;;;;16.35;6.80;;;2.60;99.90;;;;;;4991481;28;20407;-78
2023/03/10 12:48:10;;;;;;;18.73;7.68;;;2.60;99.90;;;;;;4992207;28;20051;-78
2023/03/10 12:50:51;;;;;;;17.38;7.50;;;2.60;99.90;;;;;;4991239;28;20096;-78
2023/03/10 12:53:25;;;;;;;13.48;6.28;;;2.60;99.90;;;;;;4991042;28;20050;-78
2023/03/10 12:56:10;;;;;;;16.52;7.18;;;2.60;99.90;;;;;;4990904;28;20090;-76
2023/03/10 12:58:39;;;;;;;15.70;6.35;;;2.50;99.90;;;;;;4970716;28;20220;-76
2023/03/10 13:01:09;;;;;;;15.07;6.65;;;2.50;99.90;;;;;;4992245;28;20050;-78
2023/03/10 13:03:43;;;;;;;15.57;6.90;;;2.40;99.90;;;;;;4991434;28;20089;-76